createdAt,value
2023-05-05T00:00:01.071Z,232.62
2023-05-05T00:01:01.063Z,239.33
2023-05-05T00:02:01.100Z,236.13
2023-05-05T00:03:01.144Z,243.00
2023-05-05T00:04:01.095Z,241.23
2023-05-05T00:05:01.037Z,242.18
2023-05-05T00:06:01.052Z,238.88
2023-05-05T00:07:01.035Z,242.64
2023-05-05T00:08:01.004Z,236.93
2023-05-05T00:09:01.022Z,236.85
2023-05-05T00:10:01.004Z,241.31
2023-05-05T00:11:00.983Z,241.07
2023-05-05T00:12:00.975Z,235.68
2023-05-05T00:13:00.972Z,230.67
2023-05-05T00:14:00.953Z,232.74
2023-05-05T00:15:00.946Z,239.05
2023-05-05T00:16:00.954Z,240.74
2023-05-05T00:17:00.975Z,241.04
2023-05-05T00:18:00.984Z,238.57
2023-05-05T00:19:00.962Z,240.68
2023-05-05T00:20:00.920Z,241.76
2023-05-05T00:21:00.949Z,237.32
2023-05-05T00:22:00.924Z,232.81
2023-05-05T00:23:00.914Z,231.16
2023-05-05T00:24:00.883Z,233.85
2023-05-05T00:25:00.892Z,235.97
2023-05-05T00:26:00.887Z,237.28
2023-05-05T00:27:00.883Z,235.76
2023-05-05T00:28:00.875Z,232.69
2023-05-05T00:29:00.899Z,236.12
2023-05-05T00:30:00.860Z,234.37
2023-05-05T00:31:00.859Z,235.11
2023-05-05T00:32:00.847Z,236.33
2023-05-05T00:33:00.836Z,235.72
2023-05-05T00:34:00.844Z,239.68
2023-05-05T00:35:00.813Z,237.55
2023-05-05T00:36:00.829Z,245.08
2023-05-05T00:37:00.797Z,246.68
2023-05-05T00:38:00.800Z,239.82
2023-05-05T00:39:00.835Z,243.38
2023-05-05T00:40:00.777Z,246.70
2023-05-05T00:41:00.761Z,244.58
2023-05-05T00:42:00.758Z,247.67
2023-05-05T00:43:00.789Z,248.86
2023-05-05T00:44:00.761Z,251.88
2023-05-05T00:45:00.741Z,247.45
2023-05-05T00:46:00.748Z,246.72
2023-05-05T00:47:00.738Z,248.96
2023-05-05T00:48:00.889Z,250.00
2023-05-05T00:49:00.723Z,248.18
2023-05-05T00:50:00.711Z,247.15
2023-05-05T00:51:00.728Z,249.52
2023-05-05T00:52:00.679Z,249.93
2023-05-05T00:53:00.679Z,250.00
2023-05-05T00:54:00.688Z,250.00
2023-05-05T00:55:00.693Z,246.78
2023-05-05T00:56:00.668Z,244.92
2023-05-05T00:57:00.656Z,241.70
2023-05-05T00:58:00.649Z,237.90
2023-05-05T00:59:00.641Z,237.29
2023-05-05T01:00:00.637Z,237.70
2023-05-05T01:01:00.627Z,236.17
2023-05-05T01:02:00.695Z,236.07
2023-05-05T01:03:00.682Z,235.47
2023-05-05T01:04:00.642Z,238.02
2023-05-05T01:05:00.586Z,234.74
2023-05-05T01:06:00.573Z,238.72
2023-05-05T01:07:00.582Z,235.08
2023-05-05T01:08:00.570Z,236.22
2023-05-05T01:09:00.556Z,235.50
2023-05-05T01:10:14.958Z,237.57
2023-05-05T01:11:01.558Z,237.15
2023-05-05T01:12:00.557Z,237.81
2023-05-05T01:13:00.643Z,237.63
2023-05-05T01:14:00.516Z,237.02
2023-05-05T01:15:00.509Z,239.72
2023-05-05T01:16:00.536Z,240.22
2023-05-05T01:17:00.507Z,239.30
2023-05-05T01:18:00.529Z,237.48
2023-05-05T01:19:00.496Z,236.14
2023-05-05T01:20:00.466Z,239.47
2023-05-05T01:21:00.469Z,240.98
2023-05-05T01:22:00.488Z,241.71
2023-05-05T01:23:00.453Z,244.20
2023-05-05T01:24:00.430Z,242.67
2023-05-05T01:25:00.466Z,241.06
2023-05-05T01:26:00.420Z,240.06
2023-05-05T01:27:00.409Z,242.71
2023-05-05T01:28:00.417Z,242.26
2023-05-05T01:29:00.427Z,239.19
2023-05-05T01:30:00.463Z,239.61
2023-05-05T01:31:00.467Z,241.71
2023-05-05T01:32:00.603Z,244.35
2023-05-05T01:33:00.537Z,246.19
2023-05-05T01:34:00.493Z,242.92
2023-05-05T01:35:00.587Z,244.88
2023-05-05T01:36:00.607Z,245.02
2023-05-05T01:37:00.617Z,248.56
2023-05-05T01:38:00.628Z,249.93
2023-05-05T01:39:00.655Z,245.85
2023-05-05T01:40:00.640Z,245.26
2023-05-05T01:41:00.640Z,241.72
2023-05-05T01:42:00.647Z,244.69
2023-05-05T01:43:00.660Z,246.28
2023-05-05T01:44:00.668Z,245.39
2023-05-05T01:45:00.717Z,245.62
2023-05-05T01:46:00.782Z,244.51
2023-05-05T01:47:00.736Z,248.63
2023-05-05T01:48:00.767Z,247.31
2023-05-05T01:49:00.774Z,249.00
2023-05-05T01:50:00.804Z,245.24
2023-05-05T01:51:00.813Z,242.81
2023-05-05T01:52:00.817Z,243.78
2023-05-05T01:53:00.836Z,245.69
2023-05-05T01:54:00.865Z,245.22
2023-05-05T01:55:00.919Z,243.89
2023-05-05T01:56:00.937Z,245.26
2023-05-05T01:57:00.952Z,247.71
2023-05-05T01:58:00.952Z,245.22
2023-05-05T01:59:00.969Z,245.16
2023-05-05T02:00:00.980Z,248.73
2023-05-05T02:01:01.019Z,249.11
2023-05-05T02:02:01.088Z,247.26
2023-05-05T02:03:01.104Z,249.59
2023-05-05T02:04:01.028Z,247.37
2023-05-05T02:05:01.053Z,248.80
2023-05-05T02:06:01.063Z,247.03
2023-05-05T02:07:01.084Z,250.00
2023-05-05T02:08:01.091Z,247.48
2023-05-05T02:09:01.112Z,248.54
2023-05-05T02:10:01.122Z,249.40
2023-05-05T02:11:01.151Z,248.65
2023-05-05T02:12:01.148Z,249.64
2023-05-05T02:13:01.180Z,246.58
2023-05-05T02:14:01.261Z,247.34
2023-05-05T02:15:01.216Z,248.21
2023-05-05T02:16:01.272Z,249.52
2023-05-05T02:17:01.229Z,246.82
2023-05-05T02:18:01.290Z,244.04
2023-05-05T02:19:01.267Z,248.77
2023-05-05T02:20:01.344Z,249.66
2023-05-05T02:21:01.286Z,250.00
2023-05-05T02:22:01.314Z,248.56
2023-05-05T02:23:01.312Z,246.07
2023-05-05T02:24:01.393Z,246.18
2023-05-05T02:25:01.391Z,245.11
2023-05-05T02:26:01.401Z,245.51
2023-05-05T02:27:01.417Z,246.75
2023-05-05T02:28:01.441Z,247.94
2023-05-05T02:29:01.554Z,248.10
2023-05-05T02:30:01.548Z,247.08
2023-05-05T02:31:01.614Z,248.30
2023-05-05T02:32:01.579Z,249.78
2023-05-05T02:33:01.614Z,249.39
2023-05-05T02:34:01.622Z,248.30
2023-05-05T02:35:01.732Z,249.98
2023-05-05T02:36:01.820Z,248.23
2023-05-05T02:37:01.822Z,248.19
2023-05-05T02:38:01.870Z,248.65
2023-05-05T02:39:01.816Z,249.93
2023-05-05T02:40:01.918Z,248.55
2023-05-05T02:41:01.993Z,249.07
2023-05-05T02:42:01.949Z,247.45
2023-05-05T02:43:01.996Z,245.36
2023-05-05T02:44:01.962Z,246.31
2023-05-05T02:45:01.992Z,244.81
2023-05-05T02:46:02.054Z,245.11
2023-05-05T02:47:02.009Z,245.41
2023-05-05T02:48:02.060Z,246.11
2023-05-05T02:49:02.045Z,243.22
2023-05-05T02:50:02.060Z,245.71
2023-05-05T02:51:02.068Z,248.05
2023-05-05T02:52:02.068Z,247.29
2023-05-05T02:53:02.075Z,245.56
2023-05-05T02:54:02.084Z,246.04
2023-05-05T02:55:02.090Z,244.81
2023-05-05T02:56:02.096Z,246.70
2023-05-05T02:57:02.114Z,247.20
2023-05-05T02:58:02.133Z,246.88
2023-05-05T02:59:02.137Z,249.38
2023-05-05T03:00:02.123Z,250.00
2023-05-05T03:01:02.140Z,248.87
2023-05-05T03:02:02.153Z,247.84
2023-05-05T03:03:02.239Z,246.25
2023-05-05T03:04:02.167Z,247.73
2023-05-05T03:05:02.182Z,247.04
2023-05-05T03:06:02.202Z,247.00
2023-05-05T03:07:02.226Z,247.34
2023-05-05T03:08:02.338Z,247.13
2023-05-05T03:09:02.235Z,247.77
2023-05-05T03:10:02.228Z,248.54
2023-05-05T03:11:02.266Z,247.88
2023-05-05T03:12:02.271Z,248.89
2023-05-05T03:13:02.376Z,247.97
2023-05-05T03:14:02.260Z,248.37
2023-05-05T03:15:02.329Z,249.35
2023-05-05T03:16:02.369Z,247.17
2023-05-05T03:17:02.361Z,246.03
2023-05-05T03:18:02.377Z,246.75
2023-05-05T03:19:02.347Z,245.74
2023-05-05T03:20:03.814Z,247.14
2023-05-05T03:21:02.389Z,245.49
2023-05-05T03:22:02.377Z,246.40
2023-05-05T03:23:02.383Z,245.55
2023-05-05T03:24:02.400Z,245.64
2023-05-05T03:25:02.422Z,243.75
2023-05-05T03:26:02.410Z,243.48
2023-05-05T03:27:02.395Z,243.67
2023-05-05T03:28:02.440Z,243.39
2023-05-05T03:29:02.424Z,242.96
2023-05-05T03:30:02.427Z,243.26
2023-05-05T03:31:02.429Z,243.57
2023-05-05T03:32:02.452Z,243.86
2023-05-05T03:33:02.431Z,241.33
2023-05-05T03:34:02.426Z,242.51
2023-05-05T03:35:02.442Z,243.49
2023-05-05T03:36:02.454Z,242.75
2023-05-05T03:37:02.438Z,241.71
2023-05-05T03:38:02.447Z,243.12
2023-05-05T03:39:02.486Z,243.28
2023-05-05T03:40:02.473Z,240.59
2023-05-05T03:41:02.509Z,242.68
2023-05-05T03:42:02.479Z,242.26
2023-05-05T03:43:02.526Z,242.92
2023-05-05T03:44:02.544Z,241.31
2023-05-05T03:45:02.550Z,242.40
2023-05-05T03:46:02.564Z,244.89
2023-05-05T03:47:02.567Z,243.98
2023-05-05T03:48:02.582Z,248.16
2023-05-05T03:49:02.572Z,246.40
2023-05-05T03:50:02.555Z,244.37
2023-05-05T03:51:02.594Z,247.46
2023-05-05T03:52:02.614Z,248.08
2023-05-05T03:53:02.609Z,249.19
2023-05-05T03:54:02.607Z,249.73
2023-05-05T03:55:02.601Z,246.28
2023-05-05T03:56:02.597Z,246.48
2023-05-05T03:57:02.612Z,248.04
2023-05-05T03:58:02.623Z,249.00
2023-05-05T03:59:02.633Z,248.82
2023-05-05T04:00:02.613Z,248.89
2023-05-05T04:01:02.616Z,249.15
2023-05-05T04:02:02.642Z,247.62
2023-05-05T04:03:02.743Z,245.12
2023-05-05T04:04:02.734Z,246.60
2023-05-05T04:05:02.687Z,241.72
2023-05-05T04:06:02.699Z,242.09
2023-05-05T04:07:02.707Z,243.30
2023-05-05T04:08:02.726Z,244.36
2023-05-05T04:09:02.721Z,241.78
2023-05-05T04:10:02.763Z,243.02
2023-05-05T04:11:02.815Z,243.87
2023-05-05T04:12:02.772Z,244.91
2023-05-05T04:13:02.820Z,243.63
2023-05-05T04:14:02.818Z,243.89
2023-05-05T04:15:02.818Z,244.15
2023-05-05T04:16:02.823Z,243.26
2023-05-05T04:17:02.834Z,241.44
2023-05-05T04:18:02.897Z,242.63
2023-05-05T04:19:02.809Z,239.83
2023-05-05T04:20:02.818Z,241.00
2023-05-05T04:21:02.859Z,242.35
2023-05-05T04:22:02.848Z,241.55
2023-05-05T04:23:02.857Z,238.07
2023-05-05T04:24:02.871Z,238.09
2023-05-05T04:25:02.906Z,238.22
2023-05-05T04:26:02.922Z,239.79
2023-05-05T04:27:02.897Z,240.14
2023-05-05T04:28:02.927Z,239.00
2023-05-05T04:29:02.917Z,239.43
2023-05-05T04:30:02.939Z,239.10
2023-05-05T04:31:02.957Z,237.54
2023-05-05T04:32:02.937Z,239.88
2023-05-05T04:33:02.997Z,238.85
2023-05-05T04:34:02.983Z,241.65
2023-05-05T04:35:02.993Z,241.73
2023-05-05T04:36:02.966Z,239.09
2023-05-05T04:37:02.985Z,240.49
2023-05-05T04:38:03.003Z,240.71
2023-05-05T04:39:03.065Z,240.19
2023-05-05T04:40:02.995Z,239.01
2023-05-05T04:41:03.034Z,238.83
2023-05-05T04:42:03.035Z,239.24
2023-05-05T04:43:03.036Z,238.85
2023-05-05T04:44:03.045Z,238.64
2023-05-05T04:45:03.051Z,236.21
2023-05-05T04:46:03.049Z,234.88
2023-05-05T04:47:03.031Z,232.65
2023-05-05T04:48:03.095Z,232.42
2023-05-05T04:49:03.060Z,235.47
2023-05-05T04:50:03.057Z,237.40
2023-05-05T04:51:03.057Z,234.24
2023-05-05T04:52:03.088Z,235.29
2023-05-05T04:53:03.088Z,235.24
2023-05-05T04:54:03.089Z,235.15
2023-05-05T04:55:03.103Z,236.40
2023-05-05T04:56:03.123Z,233.20
2023-05-05T04:57:03.112Z,235.73
2023-05-05T04:58:03.116Z,233.02
2023-05-05T04:59:03.131Z,233.02
2023-05-05T05:00:03.129Z,233.15
2023-05-05T05:01:03.135Z,232.06
2023-05-05T05:02:03.167Z,230.91
2023-05-05T05:03:03.250Z,230.52
2023-05-05T05:04:03.274Z,231.00
2023-05-05T05:05:03.159Z,230.90
2023-05-05T05:06:03.184Z,229.90
2023-05-05T05:07:03.187Z,229.74
2023-05-05T05:08:03.233Z,233.53
2023-05-05T05:09:03.262Z,232.15
2023-05-05T05:10:03.300Z,234.02
2023-05-05T05:11:03.351Z,232.49
2023-05-05T05:12:03.402Z,232.35
2023-05-05T05:13:03.522Z,233.27
2023-05-05T05:14:03.516Z,234.53
2023-05-05T05:15:03.591Z,233.40
2023-05-05T05:16:03.697Z,236.34
2023-05-05T05:17:03.709Z,236.65
2023-05-05T05:18:03.789Z,235.66
2023-05-05T05:19:03.811Z,235.60
2023-05-05T05:20:03.892Z,239.20
2023-05-05T05:21:03.940Z,240.70
2023-05-05T05:22:04.037Z,243.36
2023-05-05T05:23:04.056Z,243.83
2023-05-05T05:24:04.128Z,244.07
2023-05-05T05:25:04.194Z,245.41
2023-05-05T05:26:04.287Z,244.36
2023-05-05T05:27:04.315Z,243.02
2023-05-05T05:28:09.528Z,243.67
2023-05-05T05:29:05.374Z,243.75
2023-05-05T05:30:04.366Z,243.85
2023-05-05T05:31:04.354Z,244.22
2023-05-05T05:32:04.381Z,238.65
2023-05-05T05:33:04.392Z,217.65
2023-05-05T05:34:04.788Z,210.70
2023-05-05T05:35:04.307Z,211.70
2023-05-05T05:36:04.301Z,196.92
2023-05-05T05:37:04.290Z,197.56
2023-05-05T05:38:04.314Z,190.29
2023-05-05T05:39:04.291Z,189.31
2023-05-05T05:40:04.288Z,193.91
2023-05-05T05:41:04.278Z,200.24
2023-05-05T05:42:04.284Z,209.87
2023-05-05T05:43:04.320Z,217.55
2023-05-05T05:44:04.335Z,223.89
2023-05-05T05:45:04.325Z,232.39
2023-05-05T05:46:05.389Z,238.80
2023-05-05T05:47:04.471Z,244.98
2023-05-05T05:48:04.566Z,246.42
2023-05-05T05:49:04.471Z,245.97
2023-05-05T05:50:04.489Z,242.57
2023-05-05T05:51:04.524Z,242.25
2023-05-05T05:52:04.560Z,237.07
2023-05-05T05:53:04.602Z,232.12
2023-05-05T05:54:04.653Z,231.41
2023-05-05T05:55:04.699Z,238.66
2023-05-05T05:56:04.776Z,250.00
2023-05-05T05:57:04.829Z,249.83
2023-05-05T05:58:04.876Z,246.49
2023-05-05T05:59:04.929Z,245.96
2023-05-05T06:00:04.957Z,249.98
2023-05-05T06:01:05.019Z,250.00
2023-05-05T06:02:05.036Z,249.00
2023-05-05T06:03:05.105Z,249.67
2023-05-05T06:04:05.355Z,248.19
2023-05-05T06:05:05.107Z,243.47
2023-05-05T06:06:05.117Z,247.92
2023-05-05T06:07:05.137Z,249.26
2023-05-05T06:08:05.216Z,249.30
2023-05-05T06:09:05.186Z,249.29
2023-05-05T06:10:22.862Z,249.45
2023-05-05T06:11:06.215Z,249.57
2023-05-05T06:12:05.194Z,250.16
2023-05-05T06:13:05.230Z,251.14
2023-05-05T06:14:05.197Z,253.91
2023-05-05T06:15:05.188Z,257.03
2023-05-05T06:16:05.257Z,249.71
2023-05-05T06:17:05.153Z,249.81
2023-05-05T06:18:05.189Z,249.04
2023-05-05T06:19:05.310Z,250.00
2023-05-05T06:20:05.190Z,249.64
2023-05-05T06:21:05.134Z,247.64
2023-05-05T06:22:05.138Z,248.63
2023-05-05T06:23:05.112Z,249.39
2023-05-05T06:24:05.118Z,249.92
2023-05-05T06:25:05.105Z,249.78
2023-05-05T06:26:05.089Z,249.05
2023-05-05T06:27:05.083Z,249.07
2023-05-05T06:28:05.078Z,250.00
2023-05-05T06:29:05.084Z,249.57
2023-05-05T06:30:05.071Z,248.37
2023-05-05T06:31:05.105Z,249.42
2023-05-05T06:32:05.322Z,240.01
2023-05-05T06:33:05.065Z,215.35
2023-05-05T06:34:05.026Z,189.48
2023-05-05T06:35:05.035Z,174.86
2023-05-05T06:36:05.084Z,177.51
2023-05-05T06:37:05.122Z,177.03
2023-05-05T06:38:05.139Z,178.51
2023-05-05T06:39:05.211Z,191.18
2023-05-05T06:40:05.206Z,199.88
2023-05-05T06:41:05.251Z,204.15
2023-05-05T06:42:05.261Z,208.31
2023-05-05T06:43:05.305Z,207.60
2023-05-05T06:44:05.317Z,210.90
2023-05-05T06:45:05.331Z,213.20
2023-05-05T06:46:05.358Z,215.68
2023-05-05T06:47:05.945Z,217.93
2023-05-05T06:48:05.398Z,217.67
2023-05-05T06:49:05.348Z,215.66
2023-05-05T06:50:05.508Z,213.49
2023-05-05T06:51:05.368Z,200.24
2023-05-05T06:52:05.378Z,203.89
2023-05-05T06:53:05.384Z,196.58
2023-05-05T06:54:05.810Z,188.80
2023-05-05T06:55:05.415Z,179.54
2023-05-05T06:56:05.405Z,171.24
2023-05-05T06:57:05.507Z,169.96
2023-05-05T06:58:05.413Z,170.01
2023-05-05T06:59:05.432Z,168.65
2023-05-05T07:00:05.627Z,163.61
2023-05-05T07:01:05.473Z,152.81
2023-05-05T07:02:05.433Z,161.27
2023-05-05T07:03:05.478Z,152.98
2023-05-05T07:04:05.496Z,125.42
2023-05-05T07:05:05.496Z,103.91
2023-05-05T07:06:05.491Z,83.86
2023-05-05T07:07:05.526Z,72.43
2023-05-05T07:08:05.581Z,59.81
2023-05-05T07:09:05.817Z,48.17
2023-05-05T07:10:05.724Z,50.41
2023-05-05T07:11:05.664Z,56.91
2023-05-05T07:12:05.833Z,57.52
2023-05-05T07:13:05.821Z,66.81
2023-05-05T07:14:05.785Z,61.97
2023-05-05T07:15:15.785Z,62.26
2023-05-05T07:16:06.853Z,62.27
2023-05-05T07:17:05.776Z,63.12
2023-05-05T07:18:05.798Z,67.75
2023-05-05T07:19:05.760Z,76.98
2023-05-05T07:20:05.997Z,80.48
2023-05-05T07:21:05.739Z,80.76
2023-05-05T07:22:05.743Z,85.99
2023-05-05T07:23:06.041Z,84.52
2023-05-05T07:24:05.729Z,83.98
2023-05-05T07:25:05.731Z,77.79
2023-05-05T07:26:05.720Z,75.12
2023-05-05T07:27:05.702Z,79.10
2023-05-05T07:28:05.703Z,89.60
2023-05-05T07:29:05.895Z,91.62
2023-05-05T07:30:11.185Z,102.47
2023-05-05T07:31:06.688Z,103.25
2023-05-05T07:32:05.882Z,108.80
2023-05-05T07:33:05.709Z,121.16
2023-05-05T07:34:05.655Z,143.29
2023-05-05T07:35:05.665Z,173.92
2023-05-05T07:36:05.646Z,183.47
2023-05-05T07:37:05.856Z,183.69
2023-05-05T07:38:05.613Z,187.46
2023-05-05T07:39:05.633Z,196.24
2023-05-05T07:40:05.859Z,204.00
2023-05-05T07:41:05.675Z,209.50
2023-05-05T07:42:05.715Z,214.00
2023-05-05T07:43:05.764Z,217.19
2023-05-05T07:44:05.825Z,219.39
2023-05-05T07:45:06.040Z,220.48
2023-05-05T07:46:05.989Z,215.55
2023-05-05T07:47:05.996Z,204.80
2023-05-05T07:48:06.106Z,210.99
2023-05-05T07:49:06.331Z,213.85
2023-05-05T07:50:06.506Z,216.95
2023-05-05T07:51:06.195Z,218.26
2023-05-05T07:52:06.228Z,219.52
2023-05-05T07:53:14.484Z,220.36
2023-05-05T07:54:07.344Z,213.52
2023-05-05T07:55:06.267Z,216.99
2023-05-05T07:56:06.269Z,220.53
2023-05-05T07:57:06.258Z,222.44
2023-05-05T07:58:06.258Z,222.82
2023-05-05T07:59:06.334Z,219.13
2023-05-05T08:00:06.527Z,221.91
2023-05-05T08:01:06.377Z,222.26
2023-05-05T08:02:06.368Z,224.79
2023-05-05T08:03:07.770Z,224.63
2023-05-05T08:04:06.276Z,226.55
2023-05-05T08:05:06.706Z,226.76
2023-05-05T08:06:06.226Z,225.04
2023-05-05T08:07:06.219Z,218.42
2023-05-05T08:08:06.198Z,213.41
2023-05-05T08:09:06.175Z,212.04
2023-05-05T08:10:06.170Z,199.83
2023-05-05T08:11:06.157Z,210.36
2023-05-05T08:12:06.144Z,218.48
2023-05-05T08:13:06.241Z,220.95
2023-05-05T08:14:06.121Z,222.48
2023-05-05T08:15:06.360Z,225.00
2023-05-05T08:16:06.139Z,225.97
2023-05-05T08:17:06.166Z,227.31
2023-05-05T08:18:06.155Z,227.26
2023-05-05T08:19:12.079Z,228.19
2023-05-05T08:20:07.104Z,218.46
2023-05-05T08:21:06.099Z,194.63
2023-05-05T08:22:06.077Z,203.10
2023-05-05T08:23:06.067Z,200.87
2023-05-05T08:24:06.352Z,197.14
2023-05-05T08:25:06.157Z,175.35
2023-05-05T08:26:06.066Z,143.29
2023-05-05T08:27:06.112Z,107.76
2023-05-05T08:28:06.164Z,81.50
2023-05-05T08:29:06.204Z,69.98
2023-05-05T08:30:06.252Z,44.32
2023-05-05T08:31:06.313Z,29.70
2023-05-05T08:32:06.373Z,25.00
2023-05-05T08:33:06.557Z,15.21
2023-05-05T08:34:06.460Z,27.98
2023-05-05T08:35:06.854Z,25.10
2023-05-05T08:36:06.578Z,27.94
2023-05-05T08:37:06.632Z,38.18
2023-05-05T08:38:06.694Z,50.25
2023-05-05T08:39:06.739Z,55.68
2023-05-05T08:40:06.803Z,54.86
2023-05-05T08:41:06.883Z,52.96
2023-05-05T08:42:06.943Z,51.16
2023-05-05T08:43:06.975Z,55.70
2023-05-05T08:44:07.037Z,67.87
2023-05-05T08:45:07.247Z,80.38
2023-05-05T08:46:07.166Z,90.79
2023-05-05T08:47:07.386Z,101.96
2023-05-05T08:48:07.259Z,102.39
2023-05-05T08:49:07.332Z,92.25
2023-05-05T08:50:07.325Z,86.96
2023-05-05T08:51:07.348Z,84.83
2023-05-05T08:52:07.378Z,88.69
2023-05-05T08:53:07.469Z,92.69
2023-05-05T08:54:07.861Z,101.89
2023-05-05T08:55:07.722Z,106.46
2023-05-05T08:56:07.520Z,95.52
2023-05-05T08:57:07.519Z,90.87
2023-05-05T08:58:07.576Z,89.54
2023-05-05T08:59:07.595Z,77.73
2023-05-05T09:00:07.600Z,76.00
2023-05-05T09:01:07.699Z,76.43
2023-05-05T09:02:07.677Z,72.87
2023-05-05T09:03:07.892Z,71.33
2023-05-05T09:04:07.742Z,59.61
2023-05-05T09:05:08.067Z,60.38
2023-05-05T09:06:07.775Z,67.39
2023-05-05T09:07:07.799Z,59.87
2023-05-05T09:08:07.806Z,61.77
2023-05-05T09:09:07.854Z,84.61
2023-05-05T09:10:07.872Z,80.50
2023-05-05T09:11:07.912Z,98.27
2023-05-05T09:12:07.931Z,106.31
2023-05-05T09:13:07.970Z,111.23
2023-05-05T09:14:07.982Z,117.38
2023-05-05T09:15:08.125Z,128.53
2023-05-05T09:16:08.026Z,126.35
2023-05-05T09:17:08.191Z,123.44
2023-05-05T09:18:08.179Z,119.37
2023-05-05T09:19:08.100Z,108.38
2023-05-05T09:20:08.122Z,111.35
2023-05-05T09:21:08.279Z,123.68
2023-05-05T09:22:08.171Z,128.68
2023-05-05T09:23:08.188Z,156.55
2023-05-05T09:24:09.046Z,176.34
2023-05-05T09:25:08.466Z,183.67
2023-05-05T09:26:08.245Z,168.73
2023-05-05T09:27:08.280Z,145.30
2023-05-05T09:28:08.295Z,135.05
2023-05-05T09:29:08.345Z,134.96
2023-05-05T09:30:08.340Z,132.93
2023-05-05T09:31:08.395Z,131.03
2023-05-05T09:32:08.738Z,137.07
2023-05-05T09:33:08.973Z,120.58
2023-05-05T09:34:08.423Z,113.29
2023-05-05T09:35:08.686Z,83.35
2023-05-05T09:36:08.473Z,92.89
2023-05-05T09:37:08.553Z,108.48
2023-05-05T09:38:08.875Z,121.42
2023-05-05T09:39:08.576Z,132.07
2023-05-05T09:40:08.594Z,139.10
2023-05-05T09:41:08.662Z,140.63
2023-05-05T09:42:08.673Z,147.29
2023-05-05T09:43:08.709Z,158.74
2023-05-05T09:44:08.739Z,167.86
2023-05-05T09:45:08.906Z,179.30
2023-05-05T09:46:08.881Z,187.95
2023-05-05T09:47:21.969Z,188.03
2023-05-05T09:48:09.857Z,188.17
2023-05-05T09:49:08.805Z,188.85
2023-05-05T09:50:09.039Z,189.35
2023-05-05T09:51:08.811Z,193.60
2023-05-05T09:52:08.817Z,203.25
2023-05-05T09:53:08.950Z,205.91
2023-05-05T09:54:08.791Z,208.88
2023-05-05T09:55:08.770Z,213.17
2023-05-05T09:56:08.798Z,218.47
2023-05-05T09:57:08.768Z,221.94
2023-05-05T09:58:08.795Z,224.59
2023-05-05T09:59:08.741Z,225.99
2023-05-05T10:00:09.054Z,228.94
2023-05-05T10:01:08.767Z,229.97
2023-05-05T10:02:08.709Z,230.12
2023-05-05T10:03:08.787Z,229.49
2023-05-05T10:04:08.699Z,242.74
2023-05-05T10:05:08.977Z,247.49
2023-05-05T10:06:08.736Z,243.54
2023-05-05T10:07:08.747Z,236.94
2023-05-05T10:08:08.775Z,229.17
2023-05-05T10:09:08.810Z,221.29
2023-05-05T10:10:09.035Z,216.26
2023-05-05T10:11:08.849Z,211.90
2023-05-05T10:12:08.916Z,209.97
2023-05-05T10:13:08.935Z,208.99
2023-05-05T10:14:08.928Z,208.64
2023-05-05T10:15:08.963Z,212.26
2023-05-05T10:16:09.077Z,213.17
2023-05-05T10:17:09.019Z,216.04
2023-05-05T10:18:09.044Z,214.12
2023-05-05T10:19:09.069Z,212.57
2023-05-05T10:20:09.254Z,211.31
2023-05-05T10:21:09.138Z,205.32
2023-05-05T10:22:09.161Z,164.57
2023-05-05T10:23:09.182Z,149.54
2023-05-05T10:24:09.187Z,138.02
2023-05-05T10:25:09.293Z,122.20
2023-05-05T10:26:09.235Z,118.54
2023-05-05T10:27:10.570Z,129.94
2023-05-05T10:28:09.231Z,135.85
2023-05-05T10:29:09.222Z,142.60
2023-05-05T10:30:09.574Z,140.38
2023-05-05T10:31:20.334Z,145.60
2023-05-05T10:32:33.538Z,145.94
2023-05-05T10:33:30.020Z,146.13
2023-05-05T10:34:10.413Z,146.30
2023-05-05T10:35:09.206Z,149.27
2023-05-05T10:36:09.188Z,155.09
2023-05-05T10:37:09.189Z,168.26
2023-05-05T10:38:09.175Z,186.09
2023-05-05T10:39:09.178Z,192.36
2023-05-05T10:40:09.345Z,203.03
2023-05-05T10:41:09.148Z,207.67
2023-05-05T10:42:09.131Z,210.80
2023-05-05T10:43:09.133Z,211.23
2023-05-05T10:44:09.158Z,206.80
2023-05-05T10:45:09.169Z,204.28
2023-05-05T10:46:09.133Z,209.08
2023-05-05T10:47:09.105Z,211.08
2023-05-05T10:48:09.255Z,188.63
2023-05-05T10:49:11.118Z,197.27
2023-05-05T10:50:09.376Z,197.41
2023-05-05T10:51:09.078Z,198.75
2023-05-05T10:52:09.071Z,201.63
2023-05-05T10:53:09.071Z,207.51
2023-05-05T10:54:09.078Z,213.30
2023-05-05T10:55:09.047Z,211.18
2023-05-05T10:56:09.028Z,216.65
2023-05-05T10:57:09.098Z,216.26
2023-05-05T10:58:09.046Z,216.61
2023-05-05T10:59:09.026Z,214.44
2023-05-05T11:00:09.268Z,220.61
2023-05-05T11:01:09.038Z,265.76
2023-05-05T11:02:09.000Z,247.12
2023-05-05T11:03:09.051Z,231.77
2023-05-05T11:04:09.091Z,226.67
2023-05-05T11:05:09.005Z,218.14
2023-05-05T11:06:08.972Z,214.25
2023-05-05T11:07:11.764Z,208.29
2023-05-05T11:08:09.938Z,171.44
2023-05-05T11:09:08.951Z,173.60
2023-05-05T11:10:09.564Z,179.81
2023-05-05T11:11:08.930Z,183.38
2023-05-05T11:12:08.929Z,159.54
2023-05-05T11:13:09.037Z,137.56
2023-05-05T11:14:08.913Z,124.65
2023-05-05T11:15:08.916Z,127.27
2023-05-05T11:16:08.915Z,143.58
2023-05-05T11:17:08.897Z,150.15
2023-05-05T11:18:09.018Z,142.27
2023-05-05T11:19:08.854Z,120.91
2023-05-05T11:20:09.323Z,148.11
2023-05-05T11:21:08.862Z,159.91
2023-05-05T11:22:08.860Z,155.40
2023-05-05T11:23:08.850Z,159.61
2023-05-05T11:24:08.824Z,173.01
2023-05-05T11:25:08.828Z,166.35
2023-05-05T11:26:08.805Z,155.46
2023-05-05T11:27:08.835Z,132.40
2023-05-05T11:28:08.896Z,129.11
2023-05-05T11:29:08.941Z,122.03
2023-05-05T11:30:09.052Z,123.32
2023-05-05T11:31:08.967Z,61.08
2023-05-05T11:32:08.968Z,57.58
2023-05-05T11:33:09.007Z,57.96
2023-05-05T11:34:09.016Z,50.35
2023-05-05T11:35:09.052Z,56.89
2023-05-05T11:36:09.092Z,101.40
2023-05-05T11:37:09.258Z,100.69
2023-05-05T11:38:09.171Z,94.52
2023-05-05T11:39:09.225Z,110.19
2023-05-05T11:40:09.394Z,111.04
2023-05-05T11:41:09.234Z,116.60
2023-05-05T11:42:10.972Z,123.88
2023-05-05T11:43:09.301Z,127.80
2023-05-05T11:44:09.330Z,136.16
2023-05-05T11:45:09.443Z,144.26
2023-05-05T11:46:09.443Z,153.95
2023-05-05T11:47:09.388Z,161.52
2023-05-05T11:48:09.470Z,172.45
2023-05-05T11:49:09.450Z,160.85
2023-05-05T11:50:09.647Z,155.82
2023-05-05T11:51:09.487Z,157.10
2023-05-05T11:52:09.507Z,173.54
2023-05-05T11:53:09.535Z,184.10
2023-05-05T11:54:09.562Z,187.04
2023-05-05T11:55:09.586Z,192.45
2023-05-05T11:56:09.615Z,192.68
2023-05-05T11:57:09.638Z,191.62
2023-05-05T11:58:09.645Z,183.08
2023-05-05T11:59:09.724Z,181.85
2023-05-05T12:00:09.827Z,164.04
2023-05-05T12:01:09.879Z,156.87
2023-05-05T12:02:09.751Z,155.91
2023-05-05T12:03:09.877Z,155.42
2023-05-05T12:04:09.987Z,145.78
2023-05-05T12:05:09.838Z,136.28
2023-05-05T12:06:09.877Z,156.02
2023-05-05T12:07:09.904Z,135.20
2023-05-05T12:08:09.949Z,121.44
2023-05-05T12:09:09.969Z,99.86
2023-05-05T12:10:10.127Z,111.07
2023-05-05T12:11:10.080Z,102.28
2023-05-05T12:12:10.055Z,106.60
2023-05-05T12:13:10.153Z,134.96
2023-05-05T12:14:10.116Z,112.46
2023-05-05T12:15:10.290Z,96.97
2023-05-05T12:16:10.194Z,77.12
2023-05-05T12:17:10.351Z,72.33
2023-05-05T12:18:10.339Z,79.47
2023-05-05T12:19:10.293Z,63.23
2023-05-05T12:20:10.644Z,46.38
2023-05-05T12:21:10.367Z,58.90
2023-05-05T12:22:10.401Z,50.20
2023-05-05T12:23:10.441Z,37.69
2023-05-05T12:24:10.502Z,32.45
2023-05-05T12:25:10.488Z,32.41
2023-05-05T12:26:10.539Z,40.07
2023-05-05T12:27:10.561Z,24.80
2023-05-05T12:28:10.618Z,30.78
2023-05-05T12:29:10.650Z,25.00
2023-05-05T12:30:10.691Z,28.54
2023-05-05T12:31:10.760Z,32.26